sensor_id;sensor_type;location;lat;lon;timestamp;temperature;humidity
72883;DHT22;61017;37.812;-122.286;2023-04-24T00:00:49;15.90;93.80
72883;DHT22;61017;37.812;-122.286;2023-04-24T00:02:21;15.90;93.80
72883;DHT22;61017;37.812;-122.286;2023-04-24T00:03:52;15.90;93.70
72883;DHT22;61017;37.812;-122.286;2023-04-24T00:05:25;15.90;93.60
72883;DHT22;61017;37.812;-122.286;2023-04-24T00:06:56;16.00;93.50
72883;DHT22;61017;37.812;-122.286;2023-04-24T00:08:28;16.00;93.50
72883;DHT22;61017;37.812;-122.286;2023-04-24T00:09:59;16.00;93.40
72883;DHT22;61017;37.812;-122.286;2023-04-24T00:11:32;16.00;93.30
72883;DHT22;61017;37.812;-122.286;2023-04-24T00:13:03;16.00;93.30
72883;DHT22;61017;37.812;-122.286;2023-04-24T00:14:35;16.00;93.30
72883;DHT22;61017;37.812;-122.286;2023-04-24T00:16:07;16.00;93.30
72883;DHT22;61017;37.812;-122.286;2023-04-24T00:17:38;16.00;93.20
72883;DHT22;61017;37.812;-122.286;2023-04-24T00:19:10;16.00;93.20
72883;DHT22;61017;37.812;-122.286;2023-04-24T00:20:41;16.00;93.60
72883;DHT22;61017;37.812;-122.286;2023-04-24T00:22:13;16.00;93.30
72883;DHT22;61017;37.812;-122.286;2023-04-24T00:23:45;16.00;93.20
72883;DHT22;61017;37.812;-122.286;2023-04-24T00:25:16;16.00;93.20
72883;DHT22;61017;37.812;-122.286;2023-04-24T00:26:48;16.00;93.20
72883;DHT22;61017;37.812;-122.286;2023-04-24T00:28:20;16.00;93.30
72883;DHT22;61017;37.812;-122.286;2023-04-24T00:29:52;16.00;93.30
72883;DHT22;61017;37.812;-122.286;2023-04-24T00:31:24;16.00;93.30
72883;DHT22;61017;37.812;-122.286;2023-04-24T00:32:55;16.00;93.20
72883;DHT22;61017;37.812;-122.286;2023-04-24T00:34:27;16.10;93.20
72883;DHT22;61017;37.812;-122.286;2023-04-24T00:35:58;16.10;93.20
72883;DHT22;61017;37.812;-122.286;2023-04-24T00:37:30;16.00;93.10
72883;DHT22;61017;37.812;-122.286;2023-04-24T00:39:02;16.10;93.50
72883;DHT22;61017;37.812;-122.286;2023-04-24T00:40:33;16.10;93.20
72883;DHT22;61017;37.812;-122.286;2023-04-24T00:42:05;16.10;93.30
72883;DHT22;61017;37.812;-122.286;2023-04-24T00:43:38;16.10;93.40
72883;DHT22;61017;37.812;-122.286;2023-04-24T00:45:10;16.10;93.30
72883;DHT22;61017;37.812;-122.286;2023-04-24T00:46:42;16.10;93.30
72883;DHT22;61017;37.812;-122.286;2023-04-24T00:48:14;16.00;93.40
72883;DHT22;61017;37.812;-122.286;2023-04-24T00:49:46;15.90;93.90
72883;DHT22;61017;37.812;-122.286;2023-04-24T00:51:18;15.90;93.70
72883;DHT22;61017;37.812;-122.286;2023-04-24T00:52:49;15.90;93.80
72883;DHT22;61017;37.812;-122.286;2023-04-24T00:54:21;15.80;93.90
72883;DHT22;61017;37.812;-122.286;2023-04-24T00:55:53;15.80;94.00
72883;DHT22;61017;37.812;-122.286;2023-04-24T00:57:25;15.80;94.10
72883;DHT22;61017;37.812;-122.286;2023-04-24T00:58:58;15.70;94.10
72883;DHT22;61017;37.812;-122.286;2023-04-24T01:00:30;15.70;94.20
72883;DHT22;61017;37.812;-122.286;2023-04-24T01:02:05;15.70;94.30
72883;DHT22;61017;37.812;-122.286;2023-04-24T01:03:38;15.70;94.30
72883;DHT22;61017;37.812;-122.286;2023-04-24T01:05:09;15.70;94.40
72883;DHT22;61017;37.812;-122.286;2023-04-24T01:06:42;15.60;94.40
72883;DHT22;61017;37.812;-122.286;2023-04-24T01:08:14;15.60;94.40
72883;DHT22;61017;37.812;-122.286;2023-04-24T01:09:48;15.60;94.50
72883;DHT22;61017;37.812;-122.286;2023-04-24T01:11:21;15.60;94.50
72883;DHT22;61017;37.812;-122.286;2023-04-24T01:12:53;15.60;94.60
72883;DHT22;61017;37.812;-122.286;2023-04-24T01:14:25;15.60;94.60
72883;DHT22;61017;37.812;-122.286;2023-04-24T01:15:57;15.60;94.60
72883;DHT22;61017;37.812;-122.286;2023-04-24T01:17:28;15.60;94.60
72883;DHT22;61017;37.812;-122.286;2023-04-24T01:19:00;15.60;94.70
72883;DHT22;61017;37.812;-122.286;2023-04-24T01:20:32;15.60;94.70
72883;DHT22;61017;37.812;-122.286;2023-04-24T01:22:22;15.60;94.70
72883;DHT22;61017;37.812;-122.286;2023-04-24T01:23:55;15.50;94.70
72883;DHT22;61017;37.812;-122.286;2023-04-24T01:25:28;15.50;94.70
72883;DHT22;61017;37.812;-122.286;2023-04-24T01:27:00;15.50;94.80
72883;DHT22;61017;37.812;-122.286;2023-04-24T01:28:31;15.50;94.80
72883;DHT22;61017;37.812;-122.286;2023-04-24T01:30:03;15.50;94.80
72883;DHT22;61017;37.812;-122.286;2023-04-24T01:31:35;15.50;94.80
72883;DHT22;61017;37.812;-122.286;2023-04-24T01:33:27;15.50;94.90
72883;DHT22;61017;37.812;-122.286;2023-04-24T01:35:00;15.50;94.90
72883;DHT22;61017;37.812;-122.286;2023-04-24T01:36:32;15.50;94.90
72883;DHT22;61017;37.812;-122.286;2023-04-24T01:38:04;15.50;94.90
72883;DHT22;61017;37.812;-122.286;2023-04-24T01:39:36;15.50;94.90
72883;DHT22;61017;37.812;-122.286;2023-04-24T01:41:08;15.50;94.90
72883;DHT22;61017;37.812;-122.286;2023-04-24T01:42:41;15.50;94.90
72883;DHT22;61017;37.812;-122.286;2023-04-24T01:44:13;15.50;94.90
72883;DHT22;61017;37.812;-122.286;2023-04-24T01:45:45;15.50;94.90
72883;DHT22;61017;37.812;-122.286;2023-04-24T01:47:17;15.50;94.90
72883;DHT22;61017;37.812;-122.286;2023-04-24T01:49:04;15.50;94.90
72883;DHT22;61017;37.812;-122.286;2023-04-24T01:50:39;15.50;94.90
72883;DHT22;61017;37.812;-122.286;2023-04-24T01:52:10;15.50;94.90
72883;DHT22;61017;37.812;-122.286;2023-04-24T01:53:42;15.50;95.00
72883;DHT22;61017;37.812;-122.286;2023-04-24T01:55:14;15.50;95.00
72883;DHT22;61017;37.812;-122.286;2023-04-24T01:56:46;15.50;95.00
72883;DHT22;61017;37.812;-122.286;2023-04-24T01:58:17;15.40;94.90
72883;DHT22;61017;37.812;-122.286;2023-04-24T01:59:50;15.40;95.00
72883;DHT22;61017;37.812;-122.286;2023-04-24T02:01:23;15.40;94.90
72883;DHT22;61017;37.812;-122.286;2023-04-24T02:02:55;15.40;95.00
72883;DHT22;61017;37.812;-122.286;2023-04-24T02:04:27;15.40;94.90
72883;DHT22;61017;37.812;-122.286;2023-04-24T02:05:58;15.40;94.90
72883;DHT22;61017;37.812;-122.286;2023-04-24T02:07:30;15.40;94.90
72883;DHT22;61017;37.812;-122.286;2023-04-24T02:09:02;15.40;95.00
72883;DHT22;61017;37.812;-122.286;2023-04-24T02:10:33;15.40;95.00
72883;DHT22;61017;37.812;-122.286;2023-04-24T02:12:05;15.40;95.00
72883;DHT22;61017;37.812;-122.286;2023-04-24T02:13:37;15.40;95.00
72883;DHT22;61017;37.812;-122.286;2023-04-24T02:15:09;15.40;95.00
72883;DHT22;61017;37.812;-122.286;2023-04-24T02:16:40;15.40;95.00
72883;DHT22;61017;37.812;-122.286;2023-04-24T02:18:12;15.40;95.00
72883;DHT22;61017;37.812;-122.286;2023-04-24T02:19:44;15.40;95.00
72883;DHT22;61017;37.812;-122.286;2023-04-24T02:21:18;15.40;95.00
72883;DHT22;61017;37.812;-122.286;2023-04-24T02:22:50;15.40;95.00
72883;DHT22;61017;37.812;-122.286;2023-04-24T02:24:21;15.40;95.00
72883;DHT22;61017;37.812;-122.286;2023-04-24T02:25:53;15.40;95.00
72883;DHT22;61017;37.812;-122.286;2023-04-24T02:27:25;15.40;95.00
72883;DHT22;61017;37.812;-122.286;2023-04-24T02:28:57;15.40;95.00
72883;DHT22;61017;37.812;-122.286;2023-04-24T02:30:28;15.40;95.00
72883;DHT22;61017;37.812;-122.286;2023-04-24T02:32:00;15.40;95.00
72883;DHT22;61017;37.812;-122.286;2023-04-24T02:33:35;15.40;95.00
72883;DHT22;61017;37.812;-122.286;2023-04-24T02:35:07;15.40;95.00
72883;DHT22;61017;37.812;-122.286;2023-04-24T02:36:38;15.40;95.00
72883;DHT22;61017;37.812;-122.286;2023-04-24T02:38:10;15.40;95.00
72883;DHT22;61017;37.812;-122.286;2023-04-24T02:39:41;15.40;95.00
72883;DHT22;61017;37.812;-122.286;2023-04-24T02:41:13;15.40;95.00
72883;DHT22;61017;37.812;-122.286;2023-04-24T02:42:45;15.40;95.00
72883;DHT22;61017;37.812;-122.286;2023-04-24T02:44:19;15.40;95.00
72883;DHT22;61017;37.812;-122.286;2023-04-24T02:45:51;15.40;95.00
72883;DHT22;61017;37.812;-122.286;2023-04-24T02:47:22;15.40;95.00
72883;DHT22;61017;37.812;-122.286;2023-04-24T02:48:57;15.40;95.00
72883;DHT22;61017;37.812;-122.286;2023-04-24T02:50:31;15.40;95.00
72883;DHT22;61017;37.812;-122.286;2023-04-24T02:52:05;15.40;95.00
72883;DHT22;61017;37.812;-122.286;2023-04-24T02:53:38;15.40;95.00
72883;DHT22;61017;37.812;-122.286;2023-04-24T02:55:09;15.40;95.00
72883;DHT22;61017;37.812;-122.286;2023-04-24T02:56:41;15.40;95.10
72883;DHT22;61017;37.812;-122.286;2023-04-24T02:58:13;15.40;95.00
72883;DHT22;61017;37.812;-122.286;2023-04-24T02:59:44;15.40;95.00
72883;DHT22;61017;37.812;-122.286;2023-04-24T03:01:16;15.40;95.10
72883;DHT22;61017;37.812;-122.286;2023-04-24T03:02:47;15.40;95.10
72883;DHT22;61017;37.812;-122.286;2023-04-24T03:04:19;15.40;95.10
72883;DHT22;61017;37.812;-122.286;2023-04-24T03:05:51;15.40;95.00
72883;DHT22;61017;37.812;-122.286;2023-04-24T03:07:22;15.40;95.00
72883;DHT22;61017;37.812;-122.286;2023-04-24T03:08:54;15.40;95.00
72883;DHT22;61017;37.812;-122.286;2023-04-24T03:10:27;15.40;95.00
72883;DHT22;61017;37.812;-122.286;2023-04-24T03:11:58;15.40;95.00
72883;DHT22;61017;37.812;-122.286;2023-04-24T03:13:30;15.40;95.00
72883;DHT22;61017;37.812;-122.286;2023-04-24T03:15:02;15.40;95.00
72883;DHT22;61017;37.812;-122.286;2023-04-24T03:16:33;15.40;95.00
72883;DHT22;61017;37.812;-122.286;2023-04-24T03:18:05;15.40;95.00
72883;DHT22;61017;37.812;-122.286;2023-04-24T03:19:36;15.40;95.00
72883;DHT22;61017;37.812;-122.286;2023-04-24T03:21:08;15.40;95.00
72883;DHT22;61017;37.812;-122.286;2023-04-24T03:22:40;15.40;95.00
72883;DHT22;61017;37.812;-122.286;2023-04-24T03:24:11;15.40;95.00
72883;DHT22;61017;37.812;-122.286;2023-04-24T03:25:43;15.40;95.00
72883;DHT22;61017;37.812;-122.286;2023-04-24T03:27:14;15.40;94.90
72883;DHT22;61017;37.812;-122.286;2023-04-24T03:28:46;15.40;95.00
72883;DHT22;61017;37.812;-122.286;2023-04-24T03:30:17;15.40;94.90
72883;DHT22;61017;37.812;-122.286;2023-04-24T03:31:49;15.40;94.90
72883;DHT22;61017;37.812;-122.286;2023-04-24T03:33:21;15.40;94.90
72883;DHT22;61017;37.812;-122.286;2023-04-24T03:34:58;15.40;94.90
72883;DHT22;61017;37.812;-122.286;2023-04-24T03:36:30;15.40;94.90
72883;DHT22;61017;37.812;-122.286;2023-04-24T03:38:02;15.40;94.90
72883;DHT22;61017;37.812;-122.286;2023-04-24T03:39:34;15.40;94.90
72883;DHT22;61017;37.812;-122.286;2023-04-24T03:41:08;15.40;94.90
72883;DHT22;61017;37.812;-122.286;2023-04-24T03:42:40;15.40;94.90
72883;DHT22;61017;37.812;-122.286;2023-04-24T03:44:12;15.40;94.90
72883;DHT22;61017;37.812;-122.286;2023-04-24T03:45:43;15.40;94.90
72883;DHT22;61017;37.812;-122.286;2023-04-24T03:47:15;15.40;94.90
72883;DHT22;61017;37.812;-122.286;2023-04-24T03:48:47;15.40;94.90
72883;DHT22;61017;37.812;-122.286;2023-04-24T03:50:18;15.40;94.90
72883;DHT22;61017;37.812;-122.286;2023-04-24T03:51:50;15.40;94.80
72883;DHT22;61017;37.812;-122.286;2023-04-24T03:53:21;15.40;94.90
72883;DHT22;61017;37.812;-122.286;2023-04-24T03:54:53;15.40;94.80
72883;DHT22;61017;37.812;-122.286;2023-04-24T03:56:25;15.40;94.80
72883;DHT22;61017;37.812;-122.286;2023-04-24T03:57:56;15.40;94.80
72883;DHT22;61017;37.812;-122.286;2023-04-24T03:59:29;15.40;94.80
72883;DHT22;61017;37.812;-122.286;2023-04-24T04:01:00;15.40;94.80
72883;DHT22;61017;37.812;-122.286;2023-04-24T04:02:32;15.30;94.70
72883;DHT22;61017;37.812;-122.286;2023-04-24T04:04:04;15.40;94.70
72883;DHT22;61017;37.812;-122.286;2023-04-24T04:05:36;15.40;94.70
72883;DHT22;61017;37.812;-122.286;2023-04-24T04:07:07;15.40;94.70
72883;DHT22;61017;37.812;-122.286;2023-04-24T04:08:39;15.40;94.70
72883;DHT22;61017;37.812;-122.286;2023-04-24T04:10:10;15.40;94.70
72883;DHT22;61017;37.812;-122.286;2023-04-24T04:11:42;15.40;94.70
72883;DHT22;61017;37.812;-122.286;2023-04-24T04:13:13;15.30;94.60
72883;DHT22;61017;37.812;-122.286;2023-04-24T04:14:45;15.30;94.60
72883;DHT22;61017;37.812;-122.286;2023-04-24T04:16:17;15.30;94.60
72883;DHT22;61017;37.812;-122.286;2023-04-24T04:17:48;15.30;94.60
72883;DHT22;61017;37.812;-122.286;2023-04-24T04:19:20;15.40;94.70
72883;DHT22;61017;37.812;-122.286;2023-04-24T04:20:52;15.40;94.60
72883;DHT22;61017;37.812;-122.286;2023-04-24T04:22:23;15.30;94.60
72883;DHT22;61017;37.812;-122.286;2023-04-24T04:23:55;15.30;94.50
72883;DHT22;61017;37.812;-122.286;2023-04-24T04:25:26;15.30;94.50
72883;DHT22;61017;37.812;-122.286;2023-04-24T04:26:58;15.30;94.50
72883;DHT22;61017;37.812;-122.286;2023-04-24T04:28:30;15.30;94.50
72883;DHT22;61017;37.812;-122.286;2023-04-24T04:30:02;15.30;94.50
72883;DHT22;61017;37.812;-122.286;2023-04-24T04:31:34;15.30;94.50
72883;DHT22;61017;37.812;-122.286;2023-04-24T04:33:06;15.30;94.90
72883;DHT22;61017;37.812;-122.286;2023-04-24T04:34:37;15.30;94.50
72883;DHT22;61017;37.812;-122.286;2023-04-24T04:36:09;15.30;94.50
72883;DHT22;61017;37.812;-122.286;2023-04-24T04:37:40;15.40;94.50
72883;DHT22;61017;37.812;-122.286;2023-04-24T04:39:12;15.30;94.40
72883;DHT22;61017;37.812;-122.286;2023-04-24T04:40:47;15.30;94.40
72883;DHT22;61017;37.812;-122.286;2023-04-24T04:42:18;15.30;94.40
72883;DHT22;61017;37.812;-122.286;2023-04-24T04:43:50;15.30;94.40
72883;DHT22;61017;37.812;-122.286;2023-04-24T04:45:21;15.30;94.40
72883;DHT22;61017;37.812;-122.286;2023-04-24T04:46:53;15.30;94.40
72883;DHT22;61017;37.812;-122.286;2023-04-24T04:48:25;15.40;94.50
72883;DHT22;61017;37.812;-122.286;2023-04-24T04:49:56;15.30;94.40
72883;DHT22;61017;37.812;-122.286;2023-04-24T04:51:28;15.30;94.40
72883;DHT22;61017;37.812;-122.286;2023-04-24T04:53:00;15.30;94.40
72883;DHT22;61017;37.812;-122.286;2023-04-24T04:54:32;15.30;94.40
72883;DHT22;61017;37.812;-122.286;2023-04-24T04:56:03;15.30;94.40
72883;DHT22;61017;37.812;-122.286;2023-04-24T04:57:35;15.30;94.40
72883;DHT22;61017;37.812;-122.286;2023-04-24T04:59:07;15.30;94.40
72883;DHT22;61017;37.812;-122.286;2023-04-24T05:00:38;15.30;94.30
72883;DHT22;61017;37.812;-122.286;2023-04-24T05:02:10;15.30;94.30
72883;DHT22;61017;37.812;-122.286;2023-04-24T05:03:42;15.30;94.30
72883;DHT22;61017;37.812;-122.286;2023-04-24T05:05:13;15.30;94.30
72883;DHT22;61017;37.812;-122.286;2023-04-24T05:06:45;15.30;94.30
72883;DHT22;61017;37.812;-122.286;2023-04-24T05:08:16;15.30;94.30
72883;DHT22;61017;37.812;-122.286;2023-04-24T05:09:48;15.30;94.30
72883;DHT22;61017;37.812;-122.286;2023-04-24T05:11:20;15.30;94.30
72883;DHT22;61017;37.812;-122.286;2023-04-24T05:12:51;15.30;94.20
72883;DHT22;61017;37.812;-122.286;2023-04-24T05:14:23;15.30;94.20
72883;DHT22;61017;37.812;-122.286;2023-04-24T05:15:54;15.30;94.20
72883;DHT22;61017;37.812;-122.286;2023-04-24T05:17:26;15.30;94.20
72883;DHT22;61017;37.812;-122.286;2023-04-24T05:18:58;15.30;94.20
72883;DHT22;61017;37.812;-122.286;2023-04-24T05:20:29;15.30;94.20
72883;DHT22;61017;37.812;-122.286;2023-04-24T05:22:01;15.30;94.20
72883;DHT22;61017;37.812;-122.286;2023-04-24T05:23:32;15.30;94.20
72883;DHT22;61017;37.812;-122.286;2023-04-24T05:25:04;15.30;94.20
72883;DHT22;61017;37.812;-122.286;2023-04-24T05:26:36;15.30;94.20
72883;DHT22;61017;37.812;-122.286;2023-04-24T05:28:07;15.30;94.10
72883;DHT22;61017;37.812;-122.286;2023-04-24T05:29:39;15.30;94.10
72883;DHT22;61017;37.812;-122.286;2023-04-24T05:31:11;15.30;94.10
72883;DHT22;61017;37.812;-122.286;2023-04-24T05:32:43;15.30;94.10
72883;DHT22;61017;37.812;-122.286;2023-04-24T05:34:14;15.30;94.00
72883;DHT22;61017;37.812;-122.286;2023-04-24T05:35:46;15.30;94.00
72883;DHT22;61017;37.812;-122.286;2023-04-24T05:37:17;15.30;94.00
72883;DHT22;61017;37.812;-122.286;2023-04-24T05:38:49;15.30;94.00
72883;DHT22;61017;37.812;-122.286;2023-04-24T05:40:21;15.30;94.00
72883;DHT22;61017;37.812;-122.286;2023-04-24T05:41:52;15.30;94.00
72883;DHT22;61017;37.812;-122.286;2023-04-24T05:43:24;15.30;94.00
72883;DHT22;61017;37.812;-122.286;2023-04-24T05:44:55;15.30;94.00
72883;DHT22;61017;37.812;-122.286;2023-04-24T05:46:27;15.30;93.90
72883;DHT22;61017;37.812;-122.286;2023-04-24T05:47:59;15.30;94.00
72883;DHT22;61017;37.812;-122.286;2023-04-24T05:49:30;15.30;93.90
72883;DHT22;61017;37.812;-122.286;2023-04-24T05:51:02;15.30;93.90
72883;DHT22;61017;37.812;-122.286;2023-04-24T05:52:34;15.30;93.90
72883;DHT22;61017;37.812;-122.286;2023-04-24T05:54:05;15.30;93.90
72883;DHT22;61017;37.812;-122.286;2023-04-24T05:55:37;15.30;93.90
72883;DHT22;61017;37.812;-122.286;2023-04-24T05:57:08;15.30;93.90
72883;DHT22;61017;37.812;-122.286;2023-04-24T05:58:40;15.30;93.90
72883;DHT22;61017;37.812;-122.286;2023-04-24T06:00:12;15.30;93.90
72883;DHT22;61017;37.812;-122.286;2023-04-24T06:01:44;15.30;93.80
72883;DHT22;61017;37.812;-122.286;2023-04-24T06:03:16;15.30;93.80
72883;DHT22;61017;37.812;-122.286;2023-04-24T06:04:47;15.30;93.90
72883;DHT22;61017;37.812;-122.286;2023-04-24T06:06:19;15.30;93.80
72883;DHT22;61017;37.812;-122.286;2023-04-24T06:07:51;15.30;93.80
72883;DHT22;61017;37.812;-122.286;2023-04-24T06:09:23;15.30;93.80
72883;DHT22;61017;37.812;-122.286;2023-04-24T06:10:55;15.30;93.80
72883;DHT22;61017;37.812;-122.286;2023-04-24T06:12:26;15.30;93.80
72883;DHT22;61017;37.812;-122.286;2023-04-24T06:13:59;15.30;93.80
72883;DHT22;61017;37.812;-122.286;2023-04-24T06:15:31;15.30;93.80
72883;DHT22;61017;37.812;-122.286;2023-04-24T06:17:02;15.30;93.80
72883;DHT22;61017;37.812;-122.286;2023-04-24T06:18:34;15.30;93.80
72883;DHT22;61017;37.812;-122.286;2023-04-24T06:20:09;15.30;93.80
72883;DHT22;61017;37.812;-122.286;2023-04-24T06:21:41;15.30;93.80
72883;DHT22;61017;37.812;-122.286;2023-04-24T06:23:13;15.30;93.80
72883;DHT22;61017;37.812;-122.286;2023-04-24T06:24:44;15.30;93.80
72883;DHT22;61017;37.812;-122.286;2023-04-24T06:26:16;15.30;93.70
72883;DHT22;61017;37.812;-122.286;2023-04-24T06:27:48;15.30;93.70
72883;DHT22;61017;37.812;-122.286;2023-04-24T06:29:20;15.30;93.70
72883;DHT22;61017;37.812;-122.286;2023-04-24T06:30:51;15.30;93.70
72883;DHT22;61017;37.812;-122.286;2023-04-24T06:32:24;15.30;93.70
72883;DHT22;61017;37.812;-122.286;2023-04-24T06:33:55;15.20;93.70
72883;DHT22;61017;37.812;-122.286;2023-04-24T06:35:27;15.30;93.70
72883;DHT22;61017;37.812;-122.286;2023-04-24T06:36:59;15.30;93.70
72883;DHT22;61017;37.812;-122.286;2023-04-24T06:38:31;15.30;93.70
72883;DHT22;61017;37.812;-122.286;2023-04-24T06:40:02;15.30;93.70
72883;DHT22;61017;37.812;-122.286;2023-04-24T06:41:34;15.30;93.70
72883;DHT22;61017;37.812;-122.286;2023-04-24T06:43:06;15.30;93.70
72883;DHT22;61017;37.812;-122.286;2023-04-24T06:44:37;15.20;93.60
72883;DHT22;61017;37.812;-122.286;2023-04-24T06:46:09;15.30;93.70
72883;DHT22;61017;37.812;-122.286;2023-04-24T06:47:41;15.30;93.60
72883;DHT22;61017;37.812;-122.286;2023-04-24T06:49:12;15.20;93.60
72883;DHT22;61017;37.812;-122.286;2023-04-24T06:50:44;15.20;93.60
72883;DHT22;61017;37.812;-122.286;2023-04-24T06:52:15;15.20;93.60
72883;DHT22;61017;37.812;-122.286;2023-04-24T06:53:47;15.20;93.60
72883;DHT22;61017;37.812;-122.286;2023-04-24T06:55:19;15.20;93.50
72883;DHT22;61017;37.812;-122.286;2023-04-24T06:56:51;15.20;93.50
72883;DHT22;61017;37.812;-122.286;2023-04-24T06:58:22;15.30;93.60
72883;DHT22;61017;37.812;-122.286;2023-04-24T06:59:54;15.20;93.50
72883;DHT22;61017;37.812;-122.286;2023-04-24T07:01:25;15.20;93.50
72883;DHT22;61017;37.812;-122.286;2023-04-24T07:02:57;15.20;93.50
72883;DHT22;61017;37.812;-122.286;2023-04-24T07:04:29;15.20;93.50
72883;DHT22;61017;37.812;-122.286;2023-04-24T07:06:01;15.20;93.50
72883;DHT22;61017;37.812;-122.286;2023-04-24T07:07:32;15.20;93.50
72883;DHT22;61017;37.812;-122.286;2023-04-24T07:09:04;15.20;93.50
72883;DHT22;61017;37.812;-122.286;2023-04-24T07:10:38;15.30;93.50
72883;DHT22;61017;37.812;-122.286;2023-04-24T07:12:10;15.20;93.50
72883;DHT22;61017;37.812;-122.286;2023-04-24T07:13:42;15.20;93.50
72883;DHT22;61017;37.812;-122.286;2023-04-24T07:15:13;15.20;93.50
72883;DHT22;61017;37.812;-122.286;2023-04-24T07:16:45;15.20;93.50
72883;DHT22;61017;37.812;-122.286;2023-04-24T07:18:17;15.20;93.50
72883;DHT22;61017;37.812;-122.286;2023-04-24T07:19:48;15.20;93.50
72883;DHT22;61017;37.812;-122.286;2023-04-24T07:21:20;15.20;93.40
72883;DHT22;61017;37.812;-122.286;2023-04-24T07:22:52;15.20;93.40
72883;DHT22;61017;37.812;-122.286;2023-04-24T07:24:24;15.20;93.40
72883;DHT22;61017;37.812;-122.286;2023-04-24T07:25:55;15.20;93.40
72883;DHT22;61017;37.812;-122.286;2023-04-24T07:27:27;15.20;93.40
72883;DHT22;61017;37.812;-122.286;2023-04-24T07:28:59;15.20;93.50
72883;DHT22;61017;37.812;-122.286;2023-04-24T07:30:31;15.20;93.40
72883;DHT22;61017;37.812;-122.286;2023-04-24T07:32:03;15.20;93.40
72883;DHT22;61017;37.812;-122.286;2023-04-24T07:33:34;15.20;93.40
72883;DHT22;61017;37.812;-122.286;2023-04-24T07:35:06;15.20;93.40
72883;DHT22;61017;37.812;-122.286;2023-04-24T07:36:38;15.20;93.40
72883;DHT22;61017;37.812;-122.286;2023-04-24T07:38:10;15.30;93.50
72883;DHT22;61017;37.812;-122.286;2023-04-24T07:39:41;15.20;93.40
72883;DHT22;61017;37.812;-122.286;2023-04-24T07:41:14;15.30;93.50
72883;DHT22;61017;37.812;-122.286;2023-04-24T07:42:45;15.20;93.40
72883;DHT22;61017;37.812;-122.286;2023-04-24T07:44:17;15.20;93.40
72883;DHT22;61017;37.812;-122.286;2023-04-24T07:45:51;15.20;93.40
72883;DHT22;61017;37.812;-122.286;2023-04-24T07:47:23;15.20;93.40
72883;DHT22;61017;37.812;-122.286;2023-04-24T07:48:55;15.20;93.40
72883;DHT22;61017;37.812;-122.286;2023-04-24T07:50:26;15.20;93.30
72883;DHT22;61017;37.812;-122.286;2023-04-24T07:51:58;15.20;93.40
72883;DHT22;61017;37.812;-122.286;2023-04-24T07:53:30;15.20;93.30
72883;DHT22;61017;37.812;-122.286;2023-04-24T07:55:01;15.20;93.30
72883;DHT22;61017;37.812;-122.286;2023-04-24T07:56:33;15.20;93.50
72883;DHT22;61017;37.812;-122.286;2023-04-24T07:58:05;15.20;93.30
72883;DHT22;61017;37.812;-122.286;2023-04-24T07:59:36;15.20;93.30
72883;DHT22;61017;37.812;-122.286;2023-04-24T08:01:08;15.20;93.30
72883;DHT22;61017;37.812;-122.286;2023-04-24T08:02:40;15.20;93.30
72883;DHT22;61017;37.812;-122.286;2023-04-24T08:04:11;15.20;93.30
72883;DHT22;61017;37.812;-122.286;2023-04-24T08:05:43;15.20;93.30
72883;DHT22;61017;37.812;-122.286;2023-04-24T08:07:15;15.20;93.30
72883;DHT22;61017;37.812;-122.286;2023-04-24T08:08:46;15.20;93.30
72883;DHT22;61017;37.812;-122.286;2023-04-24T08:10:18;15.20;93.30
72883;DHT22;61017;37.812;-122.286;2023-04-24T08:11:50;15.20;93.30
72883;DHT22;61017;37.812;-122.286;2023-04-24T08:13:21;15.20;93.30
72883;DHT22;61017;37.812;-122.286;2023-04-24T08:14:53;15.20;93.20
72883;DHT22;61017;37.812;-122.286;2023-04-24T08:16:25;15.20;93.30
72883;DHT22;61017;37.812;-122.286;2023-04-24T08:17:57;15.20;93.20
72883;DHT22;61017;37.812;-122.286;2023-04-24T08:19:29;15.20;93.20
72883;DHT22;61017;37.812;-122.286;2023-04-24T08:21:00;15.20;93.20
72883;DHT22;61017;37.812;-122.286;2023-04-24T08:22:32;15.20;93.20
72883;DHT22;61017;37.812;-122.286;2023-04-24T08:24:04;15.20;93.20
72883;DHT22;61017;37.812;-122.286;2023-04-24T08:25:36;15.20;93.20
72883;DHT22;61017;37.812;-122.286;2023-04-24T08:27:08;15.20;93.20
72883;DHT22;61017;37.812;-122.286;2023-04-24T08:28:40;15.20;93.20
72883;DHT22;61017;37.812;-122.286;2023-04-24T08:30:11;15.20;93.20
72883;DHT22;61017;37.812;-122.286;2023-04-24T08:31:43;15.20;93.20
72883;DHT22;61017;37.812;-122.286;2023-04-24T08:33:15;15.20;93.20
72883;DHT22;61017;37.812;-122.286;2023-04-24T08:34:46;15.20;93.10
72883;DHT22;61017;37.812;-122.286;2023-04-24T08:36:18;15.20;93.10
72883;DHT22;61017;37.812;-122.286;2023-04-24T08:37:50;15.20;93.10
72883;DHT22;61017;37.812;-122.286;2023-04-24T08:39:21;15.20;93.10
72883;DHT22;61017;37.812;-122.286;2023-04-24T08:40:53;15.20;93.20
72883;DHT22;61017;37.812;-122.286;2023-04-24T08:42:28;15.20;93.50
72883;DHT22;61017;37.812;-122.286;2023-04-24T08:44:02;15.20;93.10
72883;DHT22;61017;37.812;-122.286;2023-04-24T08:45:34;15.20;93.10
72883;DHT22;61017;37.812;-122.286;2023-04-24T08:47:07;15.20;93.10
72883;DHT22;61017;37.812;-122.286;2023-04-24T08:48:42;15.20;93.10
72883;DHT22;61017;37.812;-122.286;2023-04-24T08:50:14;15.20;93.10
72883;DHT22;61017;37.812;-122.286;2023-04-24T08:51:46;15.20;93.10
72883;DHT22;61017;37.812;-122.286;2023-04-24T08:53:18;15.20;93.10
72883;DHT22;61017;37.812;-122.286;2023-04-24T08:54:50;15.20;93.10
72883;DHT22;61017;37.812;-122.286;2023-04-24T08:56:23;15.20;93.10
72883;DHT22;61017;37.812;-122.286;2023-04-24T08:57:54;15.20;93.10
72883;DHT22;61017;37.812;-122.286;2023-04-24T08:59:26;15.20;93.10
72883;DHT22;61017;37.812;-122.286;2023-04-24T09:00:58;15.20;93.10
72883;DHT22;61017;37.812;-122.286;2023-04-24T09:02:30;15.20;93.10
72883;DHT22;61017;37.812;-122.286;2023-04-24T09:04:03;15.20;93.10
72883;DHT22;61017;37.812;-122.286;2023-04-24T09:05:35;15.20;93.10
72883;DHT22;61017;37.812;-122.286;2023-04-24T09:07:08;15.20;93.10
72883;DHT22;61017;37.812;-122.286;2023-04-24T09:08:41;15.20;93.10
72883;DHT22;61017;37.812;-122.286;2023-04-24T09:10:14;15.20;93.10
72883;DHT22;61017;37.812;-122.286;2023-04-24T09:11:47;15.20;93.10
72883;DHT22;61017;37.812;-122.286;2023-04-24T09:13:22;15.20;93.00
72883;DHT22;61017;37.812;-122.286;2023-04-24T09:14:55;15.20;93.00